CheckWX is a tool to help pilots better visualize weather data.  It is not intended as a substitute for an official pre-flight weather briefing.

15:34:52 UTC

EDMA METAR
Augsburg Airport
Augsburg, Germany
Current

45 mins ago

EDMA 201450Z 26006KT 9999 RA BKN012 BKN023 OVC039 13/12 Q1003
Observed
May-20 @ 14:50 UTC
Wind
  • 260° at 6 KTS
Visibility
10,000+ meters
Flight Rules
MVFR
Conditions
Rain
Cloud Levels
  • Broken at 1,200' AGL
  • Broken at 2,300' AGL
  • Overcast at 3,900' AGL
Temperature
13°C / 55°F
Dewpoint
12°C / 54°F
Humidity
94%
Altimeter
29.62" Hg
Pressure
1002.92 hPa
Previous

1 hour ago

EDMA 201420Z 30005KT 260V330 9999 RA FEW006 BKN021 OVC056 13/12 Q1003
Observed
May-20 @ 14:20 UTC
Wind
  • 300° at 5 KTS
Visibility
10,000+ meters
Flight Rules
MVFR
Conditions
Rain
Cloud Levels
  • Few at 600' AGL
  • Broken at 2,100' AGL
  • Overcast at 5,600' AGL
Temperature
13°C / 55°F
Dewpoint
12°C / 54°F
Humidity
94%
Altimeter
29.62" Hg
Pressure
1002.92 hPa
Previous

2 hours ago

EDMA 201350Z 30009KT 8000 RA SCT007 SCT014 OVC051 13/12 Q1003
Observed
May-20 @ 13:50 UTC
Wind
  • 300° at 9 KTS
Visibility
7,998 meters
Flight Rules
MVFR
Conditions
Rain
Cloud Levels
  • Scattered at 700' AGL
  • Scattered at 1,400' AGL
  • Overcast at 5,100' AGL
Temperature
13°C / 55°F
Dewpoint
12°C / 54°F
Humidity
94%
Altimeter
29.62" Hg
Pressure
1002.92 hPa